Howard City, MI

10:23 PM EST on January 29, 2015 (GMT -0500)
Fremont | Change Station
CLOSE
Current Station
Airport
Location: Fremont,
Elevation: 771 ft
Nearby Weather Stations

Elev 771 ft 43.44 °N, 85.99 °W | Updated 12 minutes ago

Overcast
Overcast
24 °F
Feels Like 9 °F
N
21
Wind Variable Wind from North
Gusts 32 mph

Today
High -- | Low -- °F
--% Chance of Precip.
Yesterday
High -- | Low -- °F
Precip. -- in
8:01 AM 5:49 PM
Waxing Gibbous, 79% visible
Pressure 30.17 in
Visibility 5.0 miles
Clouds Scattered Clouds 2500 ft
Mostly Cloudy 3100 ft
Overcast 5000 ft
Windchill 9 °F
Dew Point 16 °F
Humidity 71%
Rainfall 0.00 in
Snow Depth Not available.
UV 0 out of 12
Pollen .10 out of 12
Air Quality Not available.
Flu Activity Not available.
METAR KFFX 300311Z AUTO 35018G28KT 5SM HZ SCT025 BKN031 OVC050 M05/M09 A3017 RMK AO2 T10461091

More Conditions Fewer Conditions

Pressure 30.17 in
Visibility 5.0 miles
Clouds Scattered Clouds 2500 ft
Mostly Cloudy 3100 ft
Overcast 5000 ft
Windchill 9 °F
Dew Point 16 °F
Humidity 71%
Rainfall 0.00 in
Snow Depth Not available.
UV 0 out of 12
Pollen .10 out of 12
Air Quality Not available.
Flu Activity Not available.
METAR KFFX 300311Z AUTO 35018G28KT 5SM HZ SCT025 BKN031 OVC050 M05/M09 A3017 RMK AO2 T10461091

More Conditions Fewer Conditions

10-Day Weather Forecast

Almanac

Astronomy

Jan. 29, 2015 Rise Set
Actual Time
Civil Twilight
Nautical Twilight
Astronomical Twilight
Moon
Length of Visible Light
Length of Day
Tomorrow will be .
, % of the Moon is Illuminated

Today's Extremes

State Highs State Lows

Community

WunderPhotos

Upload Photos

1,791,702 photos uploaded!

WunderBlogs® & News

Nearby

Air Quality

  Air Quality AQ Index Pollutant
Not available.

Snow Depth

Station Depth Elevation

Earthquake Activity

City Distance Mag. Time & Date
Minimum magnitude displayed is 2.5.

Coastal Water Temperatures

Place Temperature

Nearby Weather Stations